This is the latest recevied weather packets stored in our database for station/object E23JWE-1. If no packets are shown the sender has not sent any weather packets the latest 10 day(s).
| Time | Temp. | Humidity | Pressure | Rain* | Wind** | Luminosity | Snow |
|---|---|---|---|---|---|---|---|
| 1778009411 | 31.11° C | 99% | 1008 hPa | - | - | 0 W/m² | - |
| 1778007585 | 30.56° C | 99% | 1008 hPa | - | - | 0 W/m² | - |
| 1778005760 | 30.56° C | 99% | 1008 hPa | - | - | 0 W/m² | - |
| 1778003933 | 28.89° C | 99% | 1009 hPa | - | - | 0 W/m² | - |
| 1778002108 | 30° C | 99% | 1009 hPa | - | - | 0 W/m² | - |
| 1778000282 | 30° C | 99% | 1009 hPa | - | - | 0 W/m² | - |
| 1777998457 | 29.44° C | 99% | 1010 hPa | - | - | 0 W/m² | - |
| 1777996631 | 30.56° C | 93% | 1009 hPa | - | - | 0 W/m² | - |
| 1777994806 | 30.56° C | 95% | 1009 hPa | - | - | 0 W/m² | - |
| 1777992980 | 30.56° C | 95% | 1009 hPa | - | - | 0 W/m² | - |
| 1777991154 | 32.22° C | 94% | 1008 hPa | - | - | 0 W/m² | - |
| 1777989329 | 31.67° C | 96% | 1007 hPa | - | - | 0 W/m² | - |
| 1777987503 | 31.67° C | 98% | 1007 hPa | - | - | 0 W/m² | - |
| 1777985678 | 31.67° C | 92% | 1007 hPa | - | - | 0 W/m² | - |
| 1777983852 | 31.67° C | 92% | 1007 hPa | - | - | 0 W/m² | - |
| 1777982026 | 31.11° C | 95% | 1006 hPa | - | - | 0 W/m² | - |
| 1777980200 | 31.67° C | 87% | 1006 hPa | - | - | 4 W/m² | - |
| 1777978375 | 32.22° C | 82% | 1005 hPa | - | - | 11 W/m² | - |
| 1777976549 | 33.89° C | 72% | 1005 hPa | - | - | 35 W/m² | - |
| 1777974724 | 33.89° C | 73% | 1005 hPa | - | - | 33 W/m² | - |
| 1777972898 | 33.89° C | 72% | 1005 hPa | - | - | 35 W/m² | - |
| 1777971072 | 33.89° C | 73% | 1006 hPa | - | - | 31 W/m² | - |
| 1777969247 | 33.89° C | 70% | 1006 hPa | - | - | 47 W/m² | - |
| 1777967421 | 33.89° C | 73% | 1006 hPa | - | - | 47 W/m² | - |
| 1777965596 | 33.33° C | 81% | 1007 hPa | - | - | 42 W/m² | - |
* Rain since midnight (hover to see other rain measurements)
** Current wind speed in m/s (hover to see current wind gust speed)